<?xml version="1.0" encoding="UTF-8" standalone="no" ?>
<gpx xmlns="http://www.topografix.com/GPX/1/1" xmlns:xsi="http://www.w3.org/2001/XMLSchema-instance" xsi:schemaLocation="http://www.topografix.com/GPX/1/1 http://www.topografix.com/GPX/1/1/gpx.xsd" version="1.1" creator="VisuGPX - https://www.visugpx.com">
  <metadata>
    <name>83 - V - Régusse Pelenc Moulins</name>
    <desc><![CDATA[Un sentier sympa au début, puis une petite piste et un peu de bitume à la fin]]></desc>
  </metadata>
  <wpt lat="43.64946" lon="6.14663">
    <ele>503</ele>
    <name><![CDATA[Point de passage 1]]></name>
  </wpt>
  <wpt lat="43.64998" lon="6.14656">
    <ele>505</ele>
    <name><![CDATA[Point de passage 2]]></name>
  </wpt>
  <trk>
    <name><![CDATA[Régusse les 2 Moulins]]></name>
    <extensions>
      <line xmlns="http://www.topografix.com/GPX/gpx_style/0/2">
        <color>0000FF</color>
        <width>4</width>
      </line>
    </extensions>
    <trkseg>
      <trkpt lat="43.64946" lon="6.14663">
        <ele>503</ele>
        <time>2026-02-19T13:00:45.000Z</time>
      </trkpt>
      <trkpt lat="43.64928" lon="6.14644">
        <ele>504</ele>
        <time>2026-02-19T13:01:50.000Z</time>
      </trkpt>
      <trkpt lat="43.64906" lon="6.14641">
        <ele>504</ele>
        <time>2026-02-19T13:02:09.000Z</time>
      </trkpt>
      <trkpt lat="43.64883" lon="6.14638">
        <ele>504</ele>
        <time>2026-02-19T13:02:32.000Z</time>
      </trkpt>
      <trkpt lat="43.64861" lon="6.14635">
        <ele>506</ele>
        <time>2026-02-19T13:03:01.000Z</time>
      </trkpt>
      <trkpt lat="43.64839" lon="6.14625">
        <ele>508</ele>
        <time>2026-02-19T13:03:32.000Z</time>
      </trkpt>
      <trkpt lat="43.64838" lon="6.14593">
        <ele>507</ele>
        <time>2026-02-19T13:04:08.000Z</time>
      </trkpt>
      <trkpt lat="43.64818" lon="6.14577">
        <ele>511</ele>
        <time>2026-02-19T13:04:50.000Z</time>
      </trkpt>
      <trkpt lat="43.64798" lon="6.14564">
        <ele>511</ele>
        <time>2026-02-19T13:05:22.000Z</time>
      </trkpt>
      <trkpt lat="43.64776" lon="6.14556">
        <ele>512</ele>
        <time>2026-02-19T13:05:42.000Z</time>
      </trkpt>
      <trkpt lat="43.64755" lon="6.14542">
        <ele>516</ele>
        <time>2026-02-19T13:06:03.000Z</time>
      </trkpt>
      <trkpt lat="43.64741" lon="6.14517">
        <ele>518</ele>
        <time>2026-02-19T13:06:26.000Z</time>
      </trkpt>
      <trkpt lat="43.64743" lon="6.14485">
        <ele>519</ele>
        <time>2026-02-19T13:06:46.000Z</time>
      </trkpt>
      <trkpt lat="43.64732" lon="6.14457">
        <ele>521</ele>
        <time>2026-02-19T13:07:07.000Z</time>
      </trkpt>
      <trkpt lat="43.6471" lon="6.14468">
        <ele>521</ele>
        <time>2026-02-19T13:07:26.000Z</time>
      </trkpt>
      <trkpt lat="43.64687" lon="6.14464">
        <ele>523</ele>
        <time>2026-02-19T13:07:47.000Z</time>
      </trkpt>
      <trkpt lat="43.64671" lon="6.14442">
        <ele>524</ele>
        <time>2026-02-19T13:08:07.000Z</time>
      </trkpt>
      <trkpt lat="43.64655" lon="6.1442">
        <ele>523</ele>
        <time>2026-02-19T13:08:26.000Z</time>
      </trkpt>
      <trkpt lat="43.64644" lon="6.14393">
        <ele>523</ele>
        <time>2026-02-19T13:08:47.000Z</time>
      </trkpt>
      <trkpt lat="43.6463" lon="6.14367">
        <ele>523</ele>
        <time>2026-02-19T13:09:08.000Z</time>
      </trkpt>
      <trkpt lat="43.64615" lon="6.1434">
        <ele>522</ele>
        <time>2026-02-19T13:09:29.000Z</time>
      </trkpt>
      <trkpt lat="43.64597" lon="6.14321">
        <ele>519</ele>
        <time>2026-02-19T13:09:54.000Z</time>
      </trkpt>
      <trkpt lat="43.64573" lon="6.14328">
        <ele>517</ele>
        <time>2026-02-19T13:10:15.000Z</time>
      </trkpt>
      <trkpt lat="43.64552" lon="6.14339">
        <ele>515</ele>
        <time>2026-02-19T13:10:35.000Z</time>
      </trkpt>
      <trkpt lat="43.64531" lon="6.14354">
        <ele>516</ele>
        <time>2026-02-19T13:10:53.000Z</time>
      </trkpt>
      <trkpt lat="43.64508" lon="6.14351">
        <ele>514</ele>
        <time>2026-02-19T13:11:17.000Z</time>
      </trkpt>
      <trkpt lat="43.6449" lon="6.14331">
        <ele>514</ele>
        <time>2026-02-19T13:11:36.000Z</time>
      </trkpt>
      <trkpt lat="43.6447" lon="6.14316">
        <ele>514</ele>
        <time>2026-02-19T13:11:55.000Z</time>
      </trkpt>
      <trkpt lat="43.64454" lon="6.14294">
        <ele>511</ele>
        <time>2026-02-19T13:12:15.000Z</time>
      </trkpt>
      <trkpt lat="43.64448" lon="6.14264">
        <ele>509</ele>
        <time>2026-02-19T13:12:35.000Z</time>
      </trkpt>
      <trkpt lat="43.64434" lon="6.14237">
        <ele>508</ele>
        <time>2026-02-19T13:12:56.000Z</time>
      </trkpt>
      <trkpt lat="43.64432" lon="6.14204">
        <ele>507</ele>
        <time>2026-02-19T13:13:18.000Z</time>
      </trkpt>
      <trkpt lat="43.64425" lon="6.14174">
        <ele>507</ele>
        <time>2026-02-19T13:13:42.000Z</time>
      </trkpt>
      <trkpt lat="43.64402" lon="6.14175">
        <ele>508</ele>
        <time>2026-02-19T13:13:59.000Z</time>
      </trkpt>
      <trkpt lat="43.64379" lon="6.1417">
        <ele>506</ele>
        <time>2026-02-19T13:14:22.000Z</time>
      </trkpt>
      <trkpt lat="43.64371" lon="6.14199">
        <ele>507</ele>
        <time>2026-02-19T13:14:42.000Z</time>
      </trkpt>
      <trkpt lat="43.64356" lon="6.14224">
        <ele>508</ele>
        <time>2026-02-19T13:15:10.000Z</time>
      </trkpt>
      <trkpt lat="43.64341" lon="6.14248">
        <ele>506</ele>
        <time>2026-02-19T13:15:31.000Z</time>
      </trkpt>
      <trkpt lat="43.64318" lon="6.14259">
        <ele>506</ele>
        <time>2026-02-19T13:15:52.000Z</time>
      </trkpt>
      <trkpt lat="43.64305" lon="6.14286">
        <ele>506</ele>
        <time>2026-02-19T13:16:11.000Z</time>
      </trkpt>
      <trkpt lat="43.64298" lon="6.14315">
        <ele>506</ele>
        <time>2026-02-19T13:16:29.000Z</time>
      </trkpt>
      <trkpt lat="43.64289" lon="6.14344">
        <ele>504</ele>
        <time>2026-02-19T13:16:49.000Z</time>
      </trkpt>
      <trkpt lat="43.64273" lon="6.14368">
        <ele>504</ele>
        <time>2026-02-19T13:17:09.000Z</time>
      </trkpt>
      <trkpt lat="43.64264" lon="6.14397">
        <ele>502</ele>
        <time>2026-02-19T13:17:28.000Z</time>
      </trkpt>
      <trkpt lat="43.64255" lon="6.14427">
        <ele>503</ele>
        <time>2026-02-19T13:17:52.000Z</time>
      </trkpt>
      <trkpt lat="43.64236" lon="6.14445">
        <ele>505</ele>
        <time>2026-02-19T13:18:17.000Z</time>
      </trkpt>
      <trkpt lat="43.64213" lon="6.1445">
        <ele>502</ele>
        <time>2026-02-19T13:18:40.000Z</time>
      </trkpt>
      <trkpt lat="43.64197" lon="6.14473">
        <ele>504</ele>
        <time>2026-02-19T13:19:00.000Z</time>
      </trkpt>
      <trkpt lat="43.64178" lon="6.14492">
        <ele>503</ele>
        <time>2026-02-19T13:19:18.000Z</time>
      </trkpt>
      <trkpt lat="43.64159" lon="6.1451">
        <ele>502</ele>
        <time>2026-02-19T13:19:38.000Z</time>
      </trkpt>
      <trkpt lat="43.64138" lon="6.1452">
        <ele>503</ele>
        <time>2026-02-19T13:19:56.000Z</time>
      </trkpt>
      <trkpt lat="43.64118" lon="6.14536">
        <ele>500</ele>
        <time>2026-02-19T13:20:15.000Z</time>
      </trkpt>
      <trkpt lat="43.64106" lon="6.14563">
        <ele>502</ele>
        <time>2026-02-19T13:20:35.000Z</time>
      </trkpt>
      <trkpt lat="43.64092" lon="6.14588">
        <ele>502</ele>
        <time>2026-02-19T13:20:55.000Z</time>
      </trkpt>
      <trkpt lat="43.64074" lon="6.14607">
        <ele>502</ele>
        <time>2026-02-19T13:21:21.000Z</time>
      </trkpt>
      <trkpt lat="43.64059" lon="6.14631">
        <ele>501</ele>
        <time>2026-02-19T13:21:42.000Z</time>
      </trkpt>
      <trkpt lat="43.64042" lon="6.14653">
        <ele>501</ele>
        <time>2026-02-19T13:22:03.000Z</time>
      </trkpt>
      <trkpt lat="43.64026" lon="6.14674">
        <ele>500</ele>
        <time>2026-02-19T13:22:25.000Z</time>
      </trkpt>
      <trkpt lat="43.64004" lon="6.14687">
        <ele>498</ele>
        <time>2026-02-19T13:22:44.000Z</time>
      </trkpt>
      <trkpt lat="43.63981" lon="6.14691">
        <ele>498</ele>
        <time>2026-02-19T13:23:08.000Z</time>
      </trkpt>
      <trkpt lat="43.63958" lon="6.14696">
        <ele>498</ele>
        <time>2026-02-19T13:23:28.000Z</time>
      </trkpt>
      <trkpt lat="43.63935" lon="6.14702">
        <ele>499</ele>
        <time>2026-02-19T13:23:50.000Z</time>
      </trkpt>
      <trkpt lat="43.63912" lon="6.14708">
        <ele>496</ele>
        <time>2026-02-19T13:24:10.000Z</time>
      </trkpt>
      <trkpt lat="43.6389" lon="6.14712">
        <ele>497</ele>
        <time>2026-02-19T13:24:29.000Z</time>
      </trkpt>
      <trkpt lat="43.63866" lon="6.1471">
        <ele>497</ele>
        <time>2026-02-19T13:24:48.000Z</time>
      </trkpt>
      <trkpt lat="43.63844" lon="6.14715">
        <ele>497</ele>
        <time>2026-02-19T13:25:05.000Z</time>
      </trkpt>
      <trkpt lat="43.63821" lon="6.14723">
        <ele>496</ele>
        <time>2026-02-19T13:25:24.000Z</time>
      </trkpt>
      <trkpt lat="43.63797" lon="6.1472">
        <ele>496</ele>
        <time>2026-02-19T13:25:42.000Z</time>
      </trkpt>
      <trkpt lat="43.63774" lon="6.14726">
        <ele>495</ele>
        <time>2026-02-19T13:26:00.000Z</time>
      </trkpt>
      <trkpt lat="43.63757" lon="6.14746">
        <ele>495</ele>
        <time>2026-02-19T13:26:19.000Z</time>
      </trkpt>
      <trkpt lat="43.6374" lon="6.14768">
        <ele>494</ele>
        <time>2026-02-19T13:26:37.000Z</time>
      </trkpt>
      <trkpt lat="43.63719" lon="6.14782">
        <ele>494</ele>
        <time>2026-02-19T13:26:56.000Z</time>
      </trkpt>
      <trkpt lat="43.63698" lon="6.14793">
        <ele>491</ele>
        <time>2026-02-19T13:27:14.000Z</time>
      </trkpt>
      <trkpt lat="43.63675" lon="6.14793">
        <ele>492</ele>
        <time>2026-02-19T13:27:32.000Z</time>
      </trkpt>
      <trkpt lat="43.63653" lon="6.14802">
        <ele>491</ele>
        <time>2026-02-19T13:27:50.000Z</time>
      </trkpt>
      <trkpt lat="43.6363" lon="6.14796">
        <ele>490</ele>
        <time>2026-02-19T13:28:18.000Z</time>
      </trkpt>
      <trkpt lat="43.63618" lon="6.14769">
        <ele>491</ele>
        <time>2026-02-19T13:28:32.000Z</time>
      </trkpt>
      <trkpt lat="43.63601" lon="6.14747">
        <ele>491</ele>
        <time>2026-02-19T13:28:50.000Z</time>
      </trkpt>
      <trkpt lat="43.63584" lon="6.14725">
        <ele>491</ele>
        <time>2026-02-19T13:29:09.000Z</time>
      </trkpt>
      <trkpt lat="43.6357" lon="6.14701">
        <ele>491</ele>
        <time>2026-02-19T13:29:28.000Z</time>
      </trkpt>
      <trkpt lat="43.63562" lon="6.14671">
        <ele>491</ele>
        <time>2026-02-19T13:29:47.000Z</time>
      </trkpt>
      <trkpt lat="43.63545" lon="6.1465">
        <ele>490</ele>
        <time>2026-02-19T13:30:04.000Z</time>
      </trkpt>
      <trkpt lat="43.6353" lon="6.14626">
        <ele>490</ele>
        <time>2026-02-19T13:30:22.000Z</time>
      </trkpt>
      <trkpt lat="43.63519" lon="6.14598">
        <ele>490</ele>
        <time>2026-02-19T13:30:51.000Z</time>
      </trkpt>
      <trkpt lat="43.63539" lon="6.14582">
        <ele>487</ele>
        <time>2026-02-19T13:32:59.000Z</time>
      </trkpt>
      <trkpt lat="43.63546" lon="6.14551">
        <ele>485</ele>
        <time>2026-02-19T13:33:17.000Z</time>
      </trkpt>
      <trkpt lat="43.6354" lon="6.14521">
        <ele>483</ele>
        <time>2026-02-19T13:33:37.000Z</time>
      </trkpt>
      <trkpt lat="43.63532" lon="6.14492">
        <ele>482</ele>
        <time>2026-02-19T13:33:55.000Z</time>
      </trkpt>
      <trkpt lat="43.63516" lon="6.14469">
        <ele>480</ele>
        <time>2026-02-19T13:34:12.000Z</time>
      </trkpt>
      <trkpt lat="43.635" lon="6.14447">
        <ele>480</ele>
        <time>2026-02-19T13:34:28.000Z</time>
      </trkpt>
      <trkpt lat="43.63489" lon="6.14419">
        <ele>479</ele>
        <time>2026-02-19T13:34:44.000Z</time>
      </trkpt>
      <trkpt lat="43.63484" lon="6.14388">
        <ele>479</ele>
        <time>2026-02-19T13:35:01.000Z</time>
      </trkpt>
      <trkpt lat="43.63468" lon="6.14364">
        <ele>483</ele>
        <time>2026-02-19T13:35:38.000Z</time>
      </trkpt>
      <trkpt lat="43.63459" lon="6.14336">
        <ele>481</ele>
        <time>2026-02-19T13:36:14.000Z</time>
      </trkpt>
      <trkpt lat="43.63456" lon="6.14304">
        <ele>482</ele>
        <time>2026-02-19T13:36:37.000Z</time>
      </trkpt>
      <trkpt lat="43.63447" lon="6.14273">
        <ele>482</ele>
        <time>2026-02-19T13:36:56.000Z</time>
      </trkpt>
      <trkpt lat="43.6344" lon="6.14243">
        <ele>482</ele>
        <time>2026-02-19T13:37:17.000Z</time>
      </trkpt>
      <trkpt lat="43.63439" lon="6.14212">
        <ele>485</ele>
        <time>2026-02-19T13:37:38.000Z</time>
      </trkpt>
      <trkpt lat="43.63437" lon="6.14181">
        <ele>487</ele>
        <time>2026-02-19T13:37:59.000Z</time>
      </trkpt>
      <trkpt lat="43.63432" lon="6.1415">
        <ele>491</ele>
        <time>2026-02-19T13:38:22.000Z</time>
      </trkpt>
      <trkpt lat="43.63431" lon="6.14119">
        <ele>493</ele>
        <time>2026-02-19T13:38:45.000Z</time>
      </trkpt>
      <trkpt lat="43.63433" lon="6.14088">
        <ele>497</ele>
        <time>2026-02-19T13:39:07.000Z</time>
      </trkpt>
      <trkpt lat="43.63429" lon="6.14056">
        <ele>499</ele>
        <time>2026-02-19T13:39:31.000Z</time>
      </trkpt>
      <trkpt lat="43.63422" lon="6.14025">
        <ele>500</ele>
        <time>2026-02-19T13:39:53.000Z</time>
      </trkpt>
      <trkpt lat="43.63416" lon="6.13994">
        <ele>501</ele>
        <time>2026-02-19T13:40:14.000Z</time>
      </trkpt>
      <trkpt lat="43.6341" lon="6.13963">
        <ele>502</ele>
        <time>2026-02-19T13:40:34.000Z</time>
      </trkpt>
      <trkpt lat="43.63398" lon="6.13934">
        <ele>506</ele>
        <time>2026-02-19T13:40:55.000Z</time>
      </trkpt>
      <trkpt lat="43.63383" lon="6.1391">
        <ele>508</ele>
        <time>2026-02-19T13:41:16.000Z</time>
      </trkpt>
      <trkpt lat="43.63364" lon="6.13893">
        <ele>509</ele>
        <time>2026-02-19T13:41:36.000Z</time>
      </trkpt>
      <trkpt lat="43.63345" lon="6.13875">
        <ele>514</ele>
        <time>2026-02-19T13:42:33.000Z</time>
      </trkpt>
      <trkpt lat="43.63325" lon="6.13861">
        <ele>514</ele>
        <time>2026-02-19T13:42:58.000Z</time>
      </trkpt>
      <trkpt lat="43.63306" lon="6.13843">
        <ele>516</ele>
        <time>2026-02-19T13:43:20.000Z</time>
      </trkpt>
      <trkpt lat="43.63289" lon="6.1382">
        <ele>517</ele>
        <time>2026-02-19T13:43:40.000Z</time>
      </trkpt>
      <trkpt lat="43.63274" lon="6.13797">
        <ele>516</ele>
        <time>2026-02-19T13:43:59.000Z</time>
      </trkpt>
      <trkpt lat="43.63257" lon="6.13773">
        <ele>516</ele>
        <time>2026-02-19T13:44:18.000Z</time>
      </trkpt>
      <trkpt lat="43.63241" lon="6.13751">
        <ele>514</ele>
        <time>2026-02-19T13:44:35.000Z</time>
      </trkpt>
      <trkpt lat="43.63224" lon="6.13729">
        <ele>514</ele>
        <time>2026-02-19T13:44:53.000Z</time>
      </trkpt>
      <trkpt lat="43.63217" lon="6.13699">
        <ele>514</ele>
        <time>2026-02-19T13:45:12.000Z</time>
      </trkpt>
      <trkpt lat="43.63211" lon="6.13668">
        <ele>515</ele>
        <time>2026-02-19T13:45:31.000Z</time>
      </trkpt>
      <trkpt lat="43.632" lon="6.13638">
        <ele>514</ele>
        <time>2026-02-19T13:45:51.000Z</time>
      </trkpt>
      <trkpt lat="43.63193" lon="6.13609">
        <ele>512</ele>
        <time>2026-02-19T13:46:10.000Z</time>
      </trkpt>
      <trkpt lat="43.63194" lon="6.13578">
        <ele>512</ele>
        <time>2026-02-19T13:46:28.000Z</time>
      </trkpt>
      <trkpt lat="43.63191" lon="6.13547">
        <ele>512</ele>
        <time>2026-02-19T13:46:46.000Z</time>
      </trkpt>
      <trkpt lat="43.63196" lon="6.13515">
        <ele>515</ele>
        <time>2026-02-19T13:48:06.000Z</time>
      </trkpt>
      <trkpt lat="43.63206" lon="6.13487">
        <ele>512</ele>
        <time>2026-02-19T13:48:25.000Z</time>
      </trkpt>
      <trkpt lat="43.63209" lon="6.13455">
        <ele>513</ele>
        <time>2026-02-19T13:48:45.000Z</time>
      </trkpt>
      <trkpt lat="43.63224" lon="6.13429">
        <ele>514</ele>
        <time>2026-02-19T13:49:06.000Z</time>
      </trkpt>
      <trkpt lat="43.63239" lon="6.13405">
        <ele>514</ele>
        <time>2026-02-19T13:49:24.000Z</time>
      </trkpt>
      <trkpt lat="43.63252" lon="6.13379">
        <ele>513</ele>
        <time>2026-02-19T13:49:44.000Z</time>
      </trkpt>
      <trkpt lat="43.6327" lon="6.1336">
        <ele>517</ele>
        <time>2026-02-19T13:50:10.000Z</time>
      </trkpt>
      <trkpt lat="43.63291" lon="6.13345">
        <ele>516</ele>
        <time>2026-02-19T13:50:29.000Z</time>
      </trkpt>
      <trkpt lat="43.63312" lon="6.13334">
        <ele>517</ele>
        <time>2026-02-19T13:50:48.000Z</time>
      </trkpt>
      <trkpt lat="43.63331" lon="6.13317">
        <ele>517</ele>
        <time>2026-02-19T13:51:06.000Z</time>
      </trkpt>
      <trkpt lat="43.63355" lon="6.13316">
        <ele>517</ele>
        <time>2026-02-19T13:51:28.000Z</time>
      </trkpt>
      <trkpt lat="43.63374" lon="6.13331">
        <ele>517</ele>
        <time>2026-02-19T13:51:48.000Z</time>
      </trkpt>
      <trkpt lat="43.63395" lon="6.13345">
        <ele>516</ele>
        <time>2026-02-19T13:52:07.000Z</time>
      </trkpt>
      <trkpt lat="43.63416" lon="6.1336">
        <ele>518</ele>
        <time>2026-02-19T13:52:26.000Z</time>
      </trkpt>
      <trkpt lat="43.63438" lon="6.13364">
        <ele>517</ele>
        <time>2026-02-19T13:52:46.000Z</time>
      </trkpt>
      <trkpt lat="43.63461" lon="6.13359">
        <ele>518</ele>
        <time>2026-02-19T13:53:07.000Z</time>
      </trkpt>
      <trkpt lat="43.63482" lon="6.13344">
        <ele>519</ele>
        <time>2026-02-19T13:53:28.000Z</time>
      </trkpt>
      <trkpt lat="43.635" lon="6.13323">
        <ele>520</ele>
        <time>2026-02-19T13:53:47.000Z</time>
      </trkpt>
      <trkpt lat="43.63519" lon="6.13304">
        <ele>520</ele>
        <time>2026-02-19T13:54:07.000Z</time>
      </trkpt>
      <trkpt lat="43.63542" lon="6.13305">
        <ele>521</ele>
        <time>2026-02-19T13:54:29.000Z</time>
      </trkpt>
      <trkpt lat="43.63566" lon="6.13304">
        <ele>521</ele>
        <time>2026-02-19T13:54:50.000Z</time>
      </trkpt>
      <trkpt lat="43.6359" lon="6.13303">
        <ele>521</ele>
        <time>2026-02-19T13:55:10.000Z</time>
      </trkpt>
      <trkpt lat="43.63612" lon="6.133">
        <ele>525</ele>
        <time>2026-02-19T13:55:29.000Z</time>
      </trkpt>
      <trkpt lat="43.63635" lon="6.13293">
        <ele>523</ele>
        <time>2026-02-19T13:55:46.000Z</time>
      </trkpt>
      <trkpt lat="43.63656" lon="6.1328">
        <ele>522</ele>
        <time>2026-02-19T13:56:05.000Z</time>
      </trkpt>
      <trkpt lat="43.63677" lon="6.13263">
        <ele>522</ele>
        <time>2026-02-19T13:56:23.000Z</time>
      </trkpt>
      <trkpt lat="43.63698" lon="6.13252">
        <ele>521</ele>
        <time>2026-02-19T13:56:41.000Z</time>
      </trkpt>
      <trkpt lat="43.63711" lon="6.13225">
        <ele>522</ele>
        <time>2026-02-19T13:57:00.000Z</time>
      </trkpt>
      <trkpt lat="43.63719" lon="6.13196">
        <ele>520</ele>
        <time>2026-02-19T13:57:20.000Z</time>
      </trkpt>
      <trkpt lat="43.63736" lon="6.13172">
        <ele>521</ele>
        <time>2026-02-19T13:57:39.000Z</time>
      </trkpt>
      <trkpt lat="43.63751" lon="6.13148">
        <ele>521</ele>
        <time>2026-02-19T13:57:59.000Z</time>
      </trkpt>
      <trkpt lat="43.63772" lon="6.13133">
        <ele>521</ele>
        <time>2026-02-19T13:58:18.000Z</time>
      </trkpt>
      <trkpt lat="43.63786" lon="6.13108">
        <ele>520</ele>
        <time>2026-02-19T13:58:37.000Z</time>
      </trkpt>
      <trkpt lat="43.63803" lon="6.13086">
        <ele>519</ele>
        <time>2026-02-19T13:58:56.000Z</time>
      </trkpt>
      <trkpt lat="43.63821" lon="6.13065">
        <ele>519</ele>
        <time>2026-02-19T13:59:15.000Z</time>
      </trkpt>
      <trkpt lat="43.63837" lon="6.1304">
        <ele>520</ele>
        <time>2026-02-19T13:59:34.000Z</time>
      </trkpt>
      <trkpt lat="43.63851" lon="6.13016">
        <ele>520</ele>
        <time>2026-02-19T13:59:53.000Z</time>
      </trkpt>
      <trkpt lat="43.63864" lon="6.1299">
        <ele>520</ele>
        <time>2026-02-19T14:00:12.000Z</time>
      </trkpt>
      <trkpt lat="43.63879" lon="6.12965">
        <ele>520</ele>
        <time>2026-02-19T14:00:31.000Z</time>
      </trkpt>
      <trkpt lat="43.63894" lon="6.12941">
        <ele>519</ele>
        <time>2026-02-19T14:00:50.000Z</time>
      </trkpt>
      <trkpt lat="43.63913" lon="6.12923">
        <ele>520</ele>
        <time>2026-02-19T14:01:08.000Z</time>
      </trkpt>
      <trkpt lat="43.63928" lon="6.129">
        <ele>519</ele>
        <time>2026-02-19T14:01:27.000Z</time>
      </trkpt>
      <trkpt lat="43.6395" lon="6.12892">
        <ele>520</ele>
        <time>2026-02-19T14:01:55.000Z</time>
      </trkpt>
      <trkpt lat="43.63973" lon="6.1289">
        <ele>518</ele>
        <time>2026-02-19T14:02:13.000Z</time>
      </trkpt>
      <trkpt lat="43.63996" lon="6.12888">
        <ele>518</ele>
        <time>2026-02-19T14:02:31.000Z</time>
      </trkpt>
      <trkpt lat="43.6402" lon="6.12885">
        <ele>518</ele>
        <time>2026-02-19T14:02:49.000Z</time>
      </trkpt>
      <trkpt lat="43.64042" lon="6.12881">
        <ele>517</ele>
        <time>2026-02-19T14:03:06.000Z</time>
      </trkpt>
      <trkpt lat="43.64066" lon="6.12881">
        <ele>516</ele>
        <time>2026-02-19T14:03:28.000Z</time>
      </trkpt>
      <trkpt lat="43.64089" lon="6.12877">
        <ele>515</ele>
        <time>2026-02-19T14:03:47.000Z</time>
      </trkpt>
      <trkpt lat="43.64112" lon="6.12873">
        <ele>515</ele>
        <time>2026-02-19T14:04:05.000Z</time>
      </trkpt>
      <trkpt lat="43.64134" lon="6.12873">
        <ele>513</ele>
        <time>2026-02-19T14:04:23.000Z</time>
      </trkpt>
      <trkpt lat="43.64157" lon="6.12872">
        <ele>512</ele>
        <time>2026-02-19T14:04:41.000Z</time>
      </trkpt>
      <trkpt lat="43.64179" lon="6.1288">
        <ele>514</ele>
        <time>2026-02-19T14:04:58.000Z</time>
      </trkpt>
      <trkpt lat="43.642" lon="6.12892">
        <ele>515</ele>
        <time>2026-02-19T14:05:16.000Z</time>
      </trkpt>
      <trkpt lat="43.64221" lon="6.12906">
        <ele>515</ele>
        <time>2026-02-19T14:05:35.000Z</time>
      </trkpt>
      <trkpt lat="43.64244" lon="6.12912">
        <ele>517</ele>
        <time>2026-02-19T14:05:52.000Z</time>
      </trkpt>
      <trkpt lat="43.64266" lon="6.12915">
        <ele>517</ele>
        <time>2026-02-19T14:06:10.000Z</time>
      </trkpt>
      <trkpt lat="43.64289" lon="6.12919">
        <ele>517</ele>
        <time>2026-02-19T14:06:27.000Z</time>
      </trkpt>
      <trkpt lat="43.64311" lon="6.12919">
        <ele>518</ele>
        <time>2026-02-19T14:11:35.000Z</time>
      </trkpt>
      <trkpt lat="43.64333" lon="6.1293">
        <ele>519</ele>
        <time>2026-02-19T14:11:53.000Z</time>
      </trkpt>
      <trkpt lat="43.64355" lon="6.1294">
        <ele>519</ele>
        <time>2026-02-19T14:12:12.000Z</time>
      </trkpt>
      <trkpt lat="43.64377" lon="6.12947">
        <ele>520</ele>
        <time>2026-02-19T14:12:28.000Z</time>
      </trkpt>
      <trkpt lat="43.644" lon="6.12948">
        <ele>516</ele>
        <time>2026-02-19T14:12:45.000Z</time>
      </trkpt>
      <trkpt lat="43.64423" lon="6.12949">
        <ele>518</ele>
        <time>2026-02-19T14:13:03.000Z</time>
      </trkpt>
      <trkpt lat="43.64447" lon="6.12952">
        <ele>518</ele>
        <time>2026-02-19T14:13:22.000Z</time>
      </trkpt>
      <trkpt lat="43.6447" lon="6.12952">
        <ele>518</ele>
        <time>2026-02-19T14:13:39.000Z</time>
      </trkpt>
      <trkpt lat="43.64493" lon="6.12952">
        <ele>517</ele>
        <time>2026-02-19T14:13:56.000Z</time>
      </trkpt>
      <trkpt lat="43.64516" lon="6.12952">
        <ele>517</ele>
        <time>2026-02-19T14:14:13.000Z</time>
      </trkpt>
      <trkpt lat="43.6454" lon="6.12958">
        <ele>516</ele>
        <time>2026-02-19T14:14:31.000Z</time>
      </trkpt>
      <trkpt lat="43.64561" lon="6.12968">
        <ele>515</ele>
        <time>2026-02-19T14:14:48.000Z</time>
      </trkpt>
      <trkpt lat="43.64585" lon="6.12971">
        <ele>515</ele>
        <time>2026-02-19T14:15:06.000Z</time>
      </trkpt>
      <trkpt lat="43.64607" lon="6.12977">
        <ele>516</ele>
        <time>2026-02-19T14:15:23.000Z</time>
      </trkpt>
      <trkpt lat="43.64629" lon="6.12986">
        <ele>518</ele>
        <time>2026-02-19T14:15:47.000Z</time>
      </trkpt>
      <trkpt lat="43.64651" lon="6.12993">
        <ele>518</ele>
        <time>2026-02-19T14:16:05.000Z</time>
      </trkpt>
      <trkpt lat="43.64674" lon="6.13002">
        <ele>516</ele>
        <time>2026-02-19T14:16:23.000Z</time>
      </trkpt>
      <trkpt lat="43.64697" lon="6.13009">
        <ele>517</ele>
        <time>2026-02-19T14:16:40.000Z</time>
      </trkpt>
      <trkpt lat="43.64719" lon="6.1302">
        <ele>517</ele>
        <time>2026-02-19T14:16:58.000Z</time>
      </trkpt>
      <trkpt lat="43.64742" lon="6.13026">
        <ele>517</ele>
        <time>2026-02-19T14:17:16.000Z</time>
      </trkpt>
      <trkpt lat="43.64764" lon="6.13017">
        <ele>518</ele>
        <time>2026-02-19T14:17:33.000Z</time>
      </trkpt>
      <trkpt lat="43.64787" lon="6.13019">
        <ele>518</ele>
        <time>2026-02-19T14:17:51.000Z</time>
      </trkpt>
      <trkpt lat="43.64811" lon="6.13021">
        <ele>519</ele>
        <time>2026-02-19T14:18:08.000Z</time>
      </trkpt>
      <trkpt lat="43.64833" lon="6.1303">
        <ele>519</ele>
        <time>2026-02-19T14:18:25.000Z</time>
      </trkpt>
      <trkpt lat="43.64856" lon="6.13027">
        <ele>520</ele>
        <time>2026-02-19T14:18:42.000Z</time>
      </trkpt>
      <trkpt lat="43.6488" lon="6.13028">
        <ele>520</ele>
        <time>2026-02-19T14:19:00.000Z</time>
      </trkpt>
      <trkpt lat="43.64902" lon="6.13039">
        <ele>519</ele>
        <time>2026-02-19T14:19:18.000Z</time>
      </trkpt>
      <trkpt lat="43.64922" lon="6.13056">
        <ele>520</ele>
        <time>2026-02-19T14:19:35.000Z</time>
      </trkpt>
      <trkpt lat="43.64941" lon="6.13072">
        <ele>522</ele>
        <time>2026-02-19T14:19:51.000Z</time>
      </trkpt>
      <trkpt lat="43.64962" lon="6.13087">
        <ele>521</ele>
        <time>2026-02-19T14:20:10.000Z</time>
      </trkpt>
      <trkpt lat="43.64982" lon="6.13103">
        <ele>521</ele>
        <time>2026-02-19T14:20:27.000Z</time>
      </trkpt>
      <trkpt lat="43.65003" lon="6.13117">
        <ele>521</ele>
        <time>2026-02-19T14:20:44.000Z</time>
      </trkpt>
      <trkpt lat="43.65024" lon="6.13131">
        <ele>524</ele>
        <time>2026-02-19T14:21:01.000Z</time>
      </trkpt>
      <trkpt lat="43.65045" lon="6.13143">
        <ele>522</ele>
        <time>2026-02-19T14:21:27.000Z</time>
      </trkpt>
      <trkpt lat="43.65065" lon="6.13157">
        <ele>526</ele>
        <time>2026-02-19T14:21:45.000Z</time>
      </trkpt>
      <trkpt lat="43.65086" lon="6.13171">
        <ele>526</ele>
        <time>2026-02-19T14:22:02.000Z</time>
      </trkpt>
      <trkpt lat="43.65107" lon="6.13184">
        <ele>526</ele>
        <time>2026-02-19T14:22:19.000Z</time>
      </trkpt>
      <trkpt lat="43.65128" lon="6.13196">
        <ele>528</ele>
        <time>2026-02-19T14:22:37.000Z</time>
      </trkpt>
      <trkpt lat="43.65151" lon="6.13208">
        <ele>528</ele>
        <time>2026-02-19T14:22:55.000Z</time>
      </trkpt>
      <trkpt lat="43.65173" lon="6.13216">
        <ele>527</ele>
        <time>2026-02-19T14:23:13.000Z</time>
      </trkpt>
      <trkpt lat="43.65197" lon="6.13223">
        <ele>527</ele>
        <time>2026-02-19T14:23:31.000Z</time>
      </trkpt>
      <trkpt lat="43.6522" lon="6.1323">
        <ele>525</ele>
        <time>2026-02-19T14:24:43.000Z</time>
      </trkpt>
      <trkpt lat="43.65243" lon="6.13237">
        <ele>527</ele>
        <time>2026-02-19T14:25:01.000Z</time>
      </trkpt>
      <trkpt lat="43.65265" lon="6.13244">
        <ele>527</ele>
        <time>2026-02-19T14:25:43.000Z</time>
      </trkpt>
      <trkpt lat="43.65289" lon="6.1325">
        <ele>526</ele>
        <time>2026-02-19T14:26:01.000Z</time>
      </trkpt>
      <trkpt lat="43.65311" lon="6.13257">
        <ele>528</ele>
        <time>2026-02-19T14:26:20.000Z</time>
      </trkpt>
      <trkpt lat="43.65333" lon="6.13262">
        <ele>530</ele>
        <time>2026-02-19T14:26:39.000Z</time>
      </trkpt>
      <trkpt lat="43.65334" lon="6.13231">
        <ele>531</ele>
        <time>2026-02-19T14:27:28.000Z</time>
      </trkpt>
      <trkpt lat="43.65345" lon="6.13259">
        <ele>530</ele>
        <time>2026-02-19T14:29:50.000Z</time>
      </trkpt>
      <trkpt lat="43.65367" lon="6.13264">
        <ele>532</ele>
        <time>2026-02-19T14:30:14.000Z</time>
      </trkpt>
      <trkpt lat="43.6539" lon="6.13265">
        <ele>535</ele>
        <time>2026-02-19T14:30:36.000Z</time>
      </trkpt>
      <trkpt lat="43.65413" lon="6.13271">
        <ele>538</ele>
        <time>2026-02-19T14:30:58.000Z</time>
      </trkpt>
      <trkpt lat="43.65433" lon="6.13287">
        <ele>538</ele>
        <time>2026-02-19T14:31:25.000Z</time>
      </trkpt>
      <trkpt lat="43.65452" lon="6.13306">
        <ele>539</ele>
        <time>2026-02-19T14:31:45.000Z</time>
      </trkpt>
      <trkpt lat="43.65467" lon="6.13331">
        <ele>541</ele>
        <time>2026-02-19T14:32:13.000Z</time>
      </trkpt>
      <trkpt lat="43.65453" lon="6.13357">
        <ele>539</ele>
        <time>2026-02-19T14:32:35.000Z</time>
      </trkpt>
      <trkpt lat="43.6544" lon="6.13383">
        <ele>536</ele>
        <time>2026-02-19T14:32:54.000Z</time>
      </trkpt>
      <trkpt lat="43.65429" lon="6.13411">
        <ele>533</ele>
        <time>2026-02-19T14:33:18.000Z</time>
      </trkpt>
      <trkpt lat="43.65419" lon="6.13439">
        <ele>531</ele>
        <time>2026-02-19T14:33:36.000Z</time>
      </trkpt>
      <trkpt lat="43.65408" lon="6.13468">
        <ele>531</ele>
        <time>2026-02-19T14:33:57.000Z</time>
      </trkpt>
      <trkpt lat="43.65397" lon="6.13497">
        <ele>529</ele>
        <time>2026-02-19T14:34:16.000Z</time>
      </trkpt>
      <trkpt lat="43.65387" lon="6.13527">
        <ele>528</ele>
        <time>2026-02-19T14:34:35.000Z</time>
      </trkpt>
      <trkpt lat="43.65383" lon="6.13558">
        <ele>526</ele>
        <time>2026-02-19T14:34:54.000Z</time>
      </trkpt>
      <trkpt lat="43.65382" lon="6.1359">
        <ele>524</ele>
        <time>2026-02-19T14:35:13.000Z</time>
      </trkpt>
      <trkpt lat="43.65372" lon="6.13619">
        <ele>525</ele>
        <time>2026-02-19T14:35:32.000Z</time>
      </trkpt>
      <trkpt lat="43.65362" lon="6.13648">
        <ele>525</ele>
        <time>2026-02-19T14:35:51.000Z</time>
      </trkpt>
      <trkpt lat="43.65351" lon="6.13676">
        <ele>522</ele>
        <time>2026-02-19T14:36:09.000Z</time>
      </trkpt>
      <trkpt lat="43.65339" lon="6.13705">
        <ele>521</ele>
        <time>2026-02-19T14:36:28.000Z</time>
      </trkpt>
      <trkpt lat="43.65329" lon="6.13733">
        <ele>519</ele>
        <time>2026-02-19T14:36:46.000Z</time>
      </trkpt>
      <trkpt lat="43.65318" lon="6.13762">
        <ele>516</ele>
        <time>2026-02-19T14:37:06.000Z</time>
      </trkpt>
      <trkpt lat="43.65308" lon="6.13792">
        <ele>516</ele>
        <time>2026-02-19T14:37:25.000Z</time>
      </trkpt>
      <trkpt lat="43.65298" lon="6.1382">
        <ele>516</ele>
        <time>2026-02-19T14:37:43.000Z</time>
      </trkpt>
      <trkpt lat="43.6529" lon="6.13849">
        <ele>515</ele>
        <time>2026-02-19T14:38:01.000Z</time>
      </trkpt>
      <trkpt lat="43.65283" lon="6.13879">
        <ele>514</ele>
        <time>2026-02-19T14:38:19.000Z</time>
      </trkpt>
      <trkpt lat="43.65277" lon="6.1391">
        <ele>512</ele>
        <time>2026-02-19T14:38:37.000Z</time>
      </trkpt>
      <trkpt lat="43.6527" lon="6.1394">
        <ele>511</ele>
        <time>2026-02-19T14:38:55.000Z</time>
      </trkpt>
      <trkpt lat="43.65265" lon="6.13971">
        <ele>510</ele>
        <time>2026-02-19T14:39:14.000Z</time>
      </trkpt>
      <trkpt lat="43.65259" lon="6.14001">
        <ele>510</ele>
        <time>2026-02-19T14:39:32.000Z</time>
      </trkpt>
      <trkpt lat="43.65255" lon="6.14033">
        <ele>508</ele>
        <time>2026-02-19T14:39:51.000Z</time>
      </trkpt>
      <trkpt lat="43.65254" lon="6.14065">
        <ele>510</ele>
        <time>2026-02-19T14:40:10.000Z</time>
      </trkpt>
      <trkpt lat="43.65254" lon="6.14097">
        <ele>510</ele>
        <time>2026-02-19T14:40:29.000Z</time>
      </trkpt>
      <trkpt lat="43.65252" lon="6.1413">
        <ele>508</ele>
        <time>2026-02-19T14:40:50.000Z</time>
      </trkpt>
      <trkpt lat="43.65248" lon="6.14161">
        <ele>508</ele>
        <time>2026-02-19T14:41:09.000Z</time>
      </trkpt>
      <trkpt lat="43.6524" lon="6.14192">
        <ele>508</ele>
        <time>2026-02-19T14:41:28.000Z</time>
      </trkpt>
      <trkpt lat="43.65229" lon="6.14219">
        <ele>508</ele>
        <time>2026-02-19T14:41:47.000Z</time>
      </trkpt>
      <trkpt lat="43.65209" lon="6.14235">
        <ele>508</ele>
        <time>2026-02-19T14:42:06.000Z</time>
      </trkpt>
      <trkpt lat="43.6519" lon="6.14252">
        <ele>508</ele>
        <time>2026-02-19T14:42:24.000Z</time>
      </trkpt>
      <trkpt lat="43.65174" lon="6.14275">
        <ele>508</ele>
        <time>2026-02-19T14:42:43.000Z</time>
      </trkpt>
      <trkpt lat="43.6516" lon="6.14301">
        <ele>507</ele>
        <time>2026-02-19T14:43:01.000Z</time>
      </trkpt>
      <trkpt lat="43.65147" lon="6.14327">
        <ele>507</ele>
        <time>2026-02-19T14:43:19.000Z</time>
      </trkpt>
      <trkpt lat="43.65134" lon="6.14354">
        <ele>506</ele>
        <time>2026-02-19T14:43:38.000Z</time>
      </trkpt>
      <trkpt lat="43.65123" lon="6.14383">
        <ele>506</ele>
        <time>2026-02-19T14:43:56.000Z</time>
      </trkpt>
      <trkpt lat="43.65111" lon="6.1441">
        <ele>507</ele>
        <time>2026-02-19T14:44:14.000Z</time>
      </trkpt>
      <trkpt lat="43.65099" lon="6.14436">
        <ele>506</ele>
        <time>2026-02-19T14:44:36.000Z</time>
      </trkpt>
      <trkpt lat="43.65086" lon="6.14463">
        <ele>506</ele>
        <time>2026-02-19T14:44:59.000Z</time>
      </trkpt>
      <trkpt lat="43.65074" lon="6.1449">
        <ele>506</ele>
        <time>2026-02-19T14:45:21.000Z</time>
      </trkpt>
      <trkpt lat="43.65062" lon="6.14517">
        <ele>506</ele>
        <time>2026-02-19T14:45:39.000Z</time>
      </trkpt>
      <trkpt lat="43.65054" lon="6.14547">
        <ele>505</ele>
        <time>2026-02-19T14:45:57.000Z</time>
      </trkpt>
      <trkpt lat="43.65049" lon="6.14579">
        <ele>504</ele>
        <time>2026-02-19T14:46:16.000Z</time>
      </trkpt>
      <trkpt lat="43.65046" lon="6.1461">
        <ele>505</ele>
        <time>2026-02-19T14:46:34.000Z</time>
      </trkpt>
      <trkpt lat="43.65042" lon="6.14642">
        <ele>505</ele>
        <time>2026-02-19T14:46:53.000Z</time>
      </trkpt>
      <trkpt lat="43.65022" lon="6.14656">
        <ele>501</ele>
        <time>2026-02-19T14:47:16.000Z</time>
      </trkpt>
      <trkpt lat="43.64998" lon="6.14656">
        <ele>505</ele>
        <time>2026-02-19T14:47:53.000Z</time>
      </trkpt>
    </trkseg>
  </trk>
</gpx>